Date,TemperatureHighF,TemperatureAvgF,TemperatureLowF,DewpointHighF,DewpointAvgF,DewpointLowF,HumidityHigh,HumidityAvg,HumidityLow,PressureMaxIn,PressureMinIn,WindSpeedMaxMPH,WindSpeedAvgMPH,GustSpeedMaxMPH,PrecipitationSumIn
2013-1-1,43,38,32,-100,-100,-100,0,0,100,0.00,40.00,0,-999,0,0.00
2013-1-2,35,30,27,-100,-100,-100,0,0,100,0.00,40.00,0,-999,0,0.00
2013-1-3,43,33,25,-100,-100,-100,0,0,100,0.00,40.00,0,-999,0,0.00
2013-1-4,51,40,29,-100,-100,-100,0,0,100,0.00,40.00,0,-999,0,0.00
2013-1-5,47,40,32,-100,-100,-100,0,0,100,0.00,40.00,0,-999,0,0.00
2013-1-6,51,42,38,-100,-100,-100,0,0,100,0.00,40.00,0,-999,0,0.00
2013-1-7,49,37,28,-100,-100,-100,0,0,100,0.00,40.00,0,-999,0,0.00
2013-1-8,59,43,32,-100,-100,-100,0,0,100,0.00,40.00,0,-999,0,0.00
2013-1-9,54,52,47,-100,-100,-100,0,0,100,0.00,40.00,0,-999,0,0.00
2013-1-10,65,60,53,-100,-100,-100,0,0,100,0.00,40.00,0,-999,0,0.00
2013-1-11,65,59,55,-100,-100,-100,0,0,100,0.00,40.00,0,-999,0,0.00
2013-1-12,71,68,61,-100,-100,-100,0,0,100,0.00,40.00,0,-999,0,0.00
2013-1-13,52,38,32,-100,-100,-100,0,0,100,0.00,40.00,0,-999,0,0.00
2013-1-14,30,28,25,-100,-100,-100,0,0,100,0.00,40.00,0,-999,0,0.00
2013-1-15,30,28,25,-100,-100,-100,0,0,100,0.00,40.00,0,-999,0,0.00
2013-1-16,36,32,29,-100,-100,-100,0,0,100,0.00,40.00,0,-999,0,0.00
2013-1-17,47,36,33,-100,-100,-100,0,0,100,0.00,40.00,0,-999,0,0.00
2013-1-18,50,35,29,-100,-100,-100,0,0,100,0.00,40.00,0,-999,0,0.00
2013-1-19,57,39,34,-100,-100,-100,0,0,100,0.00,40.00,0,-999,0,0.00
2013-1-20,52,43,36,-100,-100,-100,0,0,100,0.00,40.00,0,-999,0,0.00
2013-1-21,40,34,30,-100,-100,-100,0,0,100,0.00,40.00,0,-999,0,0.00
2013-1-22,37,30,25,-100,-100,-100,0,0,100,0.00,40.00,0,-999,0,0.00
2013-1-23,54,37,27,-100,-100,-100,0,0,100,0.00,40.00,0,-999,0,0.00
2013-1-24,41,36,32,-100,-100,-100,0,0,100,0.00,40.00,0,-999,0,0.00
2013-1-25,43,39,32,-100,-100,-100,0,0,100,0.00,40.00,0,-999,0,0.00
2013-1-26,54,43,32,-100,-100,-100,0,0,100,0.00,40.00,0,-999,0,0.00
2013-1-27,64,51,44,-100,-100,-100,0,0,100,0.00,40.00,0,-999,0,0.00
2013-1-28,69,62,58,-100,-100,-100,0,0,100,0.00,40.00,0,-999,0,0.00
2013-1-29,71,65,60,-100,-100,-100,0,0,100,0.00,40.00,0,-999,0,0.00
2013-1-30,56,49,35,-100,-100,-100,0,0,100,0.00,40.00,0,-999,0,0.00
2013-1-31,54,43,31,-100,-100,-100,0,0,100,0.00,40.00,0,-999,0,0.00
2013-2-1,35,29,22,-100,-100,-100,0,0,100,0.00,40.00,0,-999,0,0.00
2013-2-2,52,36,27,-100,-100,-100,0,0,100,0.00,40.00,0,-999,0,0.00
2013-2-3,54,44,39,-100,-100,-100,0,0,100,0.00,40.00,0,-999,0,0.00
2013-2-4,54,45,39,-100,-100,-100,0,0,100,0.00,40.00,0,-999,0,0.00
2013-2-5,58,46,38,-100,-100,-100,0,0,100,0.00,40.00,0,-999,0,0.00
2013-2-6,57,46,40,-100,-100,-100,0,0,100,0.00,40.00,0,-999,0,0.00
2013-2-7,68,54,47,-100,-100,-100,0,0,100,0.00,40.00,0,-999,0,0.00
2013-2-8,55,44,36,-100,-100,-100,0,0,100,0.00,40.00,0,-999,0,0.00
2013-2-9,50,40,32,-100,-100,-100,0,0,100,0.00,40.00,0,-999,0,0.00
2013-2-10,61,55,50,-100,-100,-100,0,0,100,0.00,40.00,0,-999,0,0.00
2013-2-11,57,51,44,-100,-100,-100,0,0,100,0.00,40.00,0,-999,0,0.00
2013-2-12,48,44,39,-100,-100,-100,0,0,100,0.00,40.00,0,-999,0,0.00
2013-2-13,50,42,39,-100,-100,-100,0,0,100,0.00,40.00,0,-999,0,0.00
2013-2-14,62,50,38,-100,-100,-100,0,0,100,0.00,40.00,0,-999,0,0.00
2013-2-15,52,45,39,-100,-100,-100,0,0,100,0.00,40.00,0,-999,0,0.00
2013-2-16,39,33,29,-100,-100,-100,0,0,100,0.00,40.00,0,-999,0,0.00
2013-2-17,54,41,33,-100,-100,-100,0,0,100,0.00,40.00,0,-999,0,0.00
2013-2-18,54,48,43,-100,-100,-100,0,0,100,0.00,40.00,0,-999,0,0.00
2013-2-19,49,41,34,-100,-100,-100,0,0,100,0.00,40.00,0,-999,0,0.00
2013-2-20,36,32,30,-100,-100,-100,0,0,100,0.00,40.00,0,-999,0,0.00
2013-2-21,39,34,32,-100,-100,-100,0,0,100,0.00,40.00,0,-999,0,0.00
2013-2-22,50,39,36,-100,-100,-100,0,0,100,0.00,40.00,0,-999,0,0.00
2013-2-23,47,37,32,-100,-100,-100,0,0,100,0.00,40.00,0,-999,0,0.00
2013-2-24,58,43,32,-100,-100,-100,0,0,100,0.00,40.00,0,-999,0,0.00
2013-2-25,56,49,41,-100,-100,-100,0,0,100,0.00,40.00,0,-999,0,0.00
2013-2-26,51,45,41,-100,-100,-100,0,0,100,0.00,40.00,0,-999,0,0.00
2013-2-27,47,43,40,-100,-100,-100,0,0,100,0.00,40.00,0,-999,0,0.00
2013-2-28,44,39,36,-100,-100,-100,0,0,100,0.00,40.00,0,-999,0,0.00
2013-3-1,38,36,32,-100,-100,-100,0,0,100,0.00,40.00,0,-999,0,0.00
2013-3-2,34,32,29,-100,-100,-100,0,0,100,0.00,40.00,0,-999,0,0.00
2013-3-3,48,36,25,-100,-100,-100,0,0,100,0.00,40.00,0,-999,0,0.00
2013-3-4,62,49,36,-100,-100,-100,0,0,100,0.00,40.00,0,-999,0,0.00
2013-3-5,59,50,38,-100,-100,-100,0,0,100,0.00,40.00,0,-999,0,0.00
2013-3-6,48,37,32,-100,-100,-100,0,0,100,0.00,40.00,0,-999,0,0.00
2013-3-7,52,42,33,-100,-100,-100,0,0,100,0.00,40.00,0,-999,0,0.00
2013-3-8,60,45,32,-100,-100,-100,0,0,100,0.00,40.00,0,-999,0,0.00
2013-3-9,71,56,47,-100,-100,-100,0,0,100,0.00,40.00,0,-999,0,0.00
2013-3-10,63,57,49,-100,-100,-100,0,0,100,0.00,40.00,0,-999,0,0.00
2013-3-11,50,44,39,-100,-100,-100,0,0,100,0.00,40.00,0,-999,0,0.00
2013-3-12,56,42,32,-100,-100,-100,0,0,100,0.00,40.00,0,-999,0,0.00
2013-3-13,51,43,37,-100,-100,-100,0,0,100,0.00,40.00,0,-999,0,0.00
2013-3-14,62,45,32,-100,-100,-100,0,0,100,0.00,40.00,0,-999,0,0.00
2013-3-15,78,57,45,-100,-100,-100,0,0,100,0.00,40.00,0,-999,0,0.00
2013-3-16,76,66,57,-100,-100,-100,0,0,100,0.00,40.00,0,-999,0,0.00
2013-3-17,59,51,46,-100,-100,-100,0,0,100,0.00,40.00,0,-999,0,0.00
2013-3-18,52,49,46,-100,-100,-100,0,0,100,0.00,40.00,0,-999,0,0.00
2013-3-19,54,45,37,-100,-100,-100,0,0,100,0.00,40.00,0,-999,0,0.00
2013-3-20,54,44,36,-100,-100,-100,0,0,100,0.00,40.00,0,-999,0,0.00
2013-3-21,47,37,29,-100,-100,-100,0,0,100,0.00,40.00,0,-999,0,0.00
2013-3-22,44,39,32,-100,-100,-100,0,0,100,0.00,40.00,0,-999,0,0.00
2013-3-23,53,49,45,-100,-100,-100,0,0,100,0.00,40.00,0,-999,0,0.00
2013-3-24,51,45,39,-100,-100,-100,0,0,100,0.00,40.00,0,-999,0,0.00
2013-3-25,42,37,33,-100,-100,-100,0,0,100,0.00,40.00,0,-999,0,0.00
2013-3-26,47,37,31,-100,-100,-100,0,0,100,0.00,40.00,0,-999,0,0.00
2013-3-27,58,44,33,-100,-100,-100,0,0,100,0.00,40.00,0,-999,0,0.00
2013-3-28,69,52,39,-100,-100,-100,0,0,100,0.00,40.00,0,-999,0,0.00
2013-3-29,59,53,50,-100,-100,-100,0,0,100,0.00,40.00,0,-999,0,0.00
2013-3-30,61,55,49,-100,-100,-100,0,0,100,0.00,40.00,0,-999,0,0.00
2013-3-31,65,57,54,-100,-100,-100,0,0,100,0.00,40.00,0,-999,0,0.00
2013-4-1,60,54,50,-100,-100,-100,0,0,100,0.00,40.00,0,-999,0,0.00
2013-4-2,51,44,40,-100,-100,-100,0,0,100,0.00,40.00,0,-999,0,0.00
2013-4-3,49,43,40,-100,-100,-100,0,0,100,0.00,40.00,0,-999,0,0.00
2013-4-4,48,44,41,-100,-100,-100,0,0,100,0.00,40.00,0,-999,0,0.00
2013-4-5,67,53,36,-100,-100,-100,0,0,100,0.00,40.00,0,-999,0,0.00
2013-4-6,73,58,47,-100,-100,-100,0,0,100,0.00,40.00,0,-999,0,0.00
2013-4-7,72,63,56,-100,-100,-100,0,0,100,0.00,40.00,0,-999,0,0.00
2013-4-8,78,66,60,-100,-100,-100,0,0,100,0.00,40.00,0,-999,0,0.00
2013-4-9,83,70,64,-100,-100,-100,0,0,100,0.00,40.00,0,-999,0,0.00
2013-4-10,85,75,70,-100,-100,-100,0,0,100,0.00,40.00,0,-999,0,0.00
2013-4-11,67,51,46,-100,-100,-100,0,0,100,0.00,40.00,0,-999,0,0.00
2013-4-12,70,54,43,-100,-100,-100,0,0,100,0.00,40.00,0,-999,0,0.00
2013-4-13,69,55,43,-100,-100,-100,0,0,100,0.00,40.00,0,-999,0,0.00
2013-4-14,73,61,54,-100,-100,-100,0,0,100,0.00,40.00,0,-999,0,0.00
2013-4-15,80,65,56,-100,-100,-100,0,0,100,0.00,40.00,0,-999,0,0.00
2013-4-16,87,78,68,-100,-100,-100,0,0,100,0.00,40.00,0,-999,0,0.00
2013-4-17,85,77,69,-100,-100,-100,0,0,100,0.00,40.00,0,-999,0,0.00
2013-4-18,78,67,45,-100,-100,-100,0,0,100,0.00,40.00,0,-999,0,0.00
2013-4-19,58,49,43,-100,-100,-100,0,0,100,0.00,40.00,0,-999,0,0.00
2013-4-20,71,55,41,-100,-100,-100,0,0,100,0.00,40.00,0,-999,0,0.00
2013-4-21,70,57,47,-100,-100,-100,0,0,100,0.00,40.00,0,-999,0,0.00
2013-4-22,76,61,45,-100,-100,-100,0,0,100,0.00,40.00,0,-999,0,0.00
2013-4-23,80,68,58,-100,-100,-100,0,0,100,0.00,40.00,0,-999,0,0.00
2013-4-24,69,50,41,-100,-100,-100,0,0,100,0.00,40.00,0,-999,0,0.00
2013-4-25,70,56,41,-100,-100,-100,0,0,100,0.00,40.00,0,-999,0,0.00
2013-4-26,66,56,51,-100,-100,-100,0,0,100,0.00,40.00,0,-999,0,0.00
2013-4-27,73,60,52,-100,-100,-100,0,0,100,0.00,40.00,0,-999,0,0.00
2013-4-28,69,61,56,-100,-100,-100,0,0,100,0.00,40.00,0,-999,0,0.00
2013-4-29,80,65,49,-100,-100,-100,0,0,100,0.00,40.00,0,-999,0,0.00
2013-4-30,84,73,60,-100,-100,-100,0,0,100,0.00,40.00,0,-999,0,0.00
2013-5-1,80,68,62,-100,-100,-100,0,0,100,0.00,40.00,0,-999,0,0.00
2013-5-2,69,64,62,-100,-100,-100,0,0,100,0.00,40.00,0,-999,0,0.00
2013-5-3,65,45,40,-100,-100,-100,0,0,100,0.00,40.00,0,-999,0,0.00
2013-5-4,62,48,36,-100,-100,-100,0,0,100,0.00,40.00,0,-999,0,0.00
2013-5-5,61,52,45,-100,-100,-100,0,0,100,0.00,40.00,0,-999,0,0.00
2013-5-6,66,58,53,-100,-100,-100,0,0,100,0.00,40.00,0,-999,0,0.00
2013-5-7,77,64,55,-100,-100,-100,0,0,100,0.00,40.00,0,-999,0,0.00
2013-5-8,87,71,57,-100,-100,-100,0,0,100,0.00,40.00,0,-999,0,0.00
2013-5-9,84,72,62,-100,-100,-100,0,0,100,0.00,40.00,0,-999,0,0.00
2013-5-10,81,70,64,-100,-100,-100,0,0,100,0.00,40.00,0,-999,0,0.00
2013-5-11,77,68,61,-100,-100,-100,0,0,100,0.00,40.00,0,-999,0,0.00
2013-5-12,69,61,51,-100,-100,-100,0,0,100,0.00,40.00,0,-999,0,0.00
2013-5-13,80,64,48,-100,-100,-100,0,0,100,0.00,40.00,0,-999,0,0.00
2013-5-14,87,75,59,-100,-100,-100,0,0,100,0.00,40.00,0,-999,0,0.00
2013-5-15,88,74,63,-100,-100,-100,0,0,100,0.00,40.00,0,-999,0,0.00
2013-5-16,79,71,65,-100,-100,-100,0,0,100,0.00,40.00,0,-999,0,0.00
2013-5-17,83,72,65,-100,-100,-100,0,0,100,0.00,40.00,0,-999,0,0.00
2013-5-18,88,76,65,-100,-100,-100,0,0,100,0.00,40.00,0,-999,0,0.00
2013-5-19,91,79,71,-100,-100,-100,0,0,100,0.00,40.00,0,-999,0,0.00
2013-5-20,91,82,73,-100,-100,-100,0,0,100,0.00,40.00,0,-999,0,0.00
2013-5-21,83,70,65,-100,-100,-100,0,0,100,0.00,40.00,0,-999,0,0.00
2013-5-22,82,71,62,-100,-100,-100,0,0,100,0.00,40.00,0,-999,0,0.00
2013-5-23,84,74,64,-100,-100,-100,0,0,100,0.00,40.00,0,-999,0,0.00
2013-5-24,73,64,56,-100,-100,-100,0,0,100,0.00,40.00,0,-999,0,0.00
2013-5-25,80,68,54,-100,-100,-100,0,0,100,0.00,40.00,0,-999,0,0.00
2013-5-26,89,73,60,-100,-100,-100,0,0,100,0.00,40.00,0,-999,0,0.00
2013-5-27,89,78,67,-100,-100,-100,0,0,100,0.00,40.00,0,-999,0,0.00
2013-5-28,92,81,71,-100,-100,-100,0,0,100,0.00,40.00,0,-999,0,0.00
2013-5-29,89,79,69,-100,-100,-100,0,0,100,0.00,40.00,0,-999,0,0.00
2013-5-30,87,78,73,-100,-100,-100,0,0,100,0.00,40.00,0,-999,0,0.00
2013-5-31,87,76,65,-100,-100,-100,0,0,100,0.00,40.00,0,-999,0,0.00
2013-6-1,83,73,66,-100,-100,-100,0,0,100,0.00,40.00,0,-999,0,0.00
2013-6-2,79,72,65,-100,-100,-100,0,0,100,0.00,40.00,0,-999,0,0.00
2013-6-3,81,70,62,-100,-100,-100,0,0,100,0.00,40.00,0,-999,0,0.00
2013-6-4,89,74,61,-100,-100,-100,0,0,100,0.00,40.00,0,-999,0,0.00
2013-6-5,93,77,69,-100,-100,-100,0,0,100,0.00,40.00,0,-999,0,0.00
2013-6-6,84,75,69,-100,-100,-100,0,0,100,0.00,40.00,0,-999,0,0.00
2013-6-7,83,74,68,-100,-100,-100,0,0,100,0.00,40.00,0,-999,0,0.00
2013-6-8,92,74,61,-100,-100,-100,0,0,100,0.00,40.00,0,-999,0,0.00
2013-6-9,91,75,67,-100,-100,-100,0,0,100,0.00,40.00,0,-999,0,0.00
2013-6-10,94,80,65,-100,-100,-100,0,0,100,0.00,40.00,0,-999,0,0.00
2013-6-11,102,87,73,-100,-100,-100,0,0,100,0.00,40.00,0,-999,0,0.00
2013-6-12,98,89,75,-100,-100,-100,0,0,100,0.00,40.00,0,-999,0,0.00
2013-6-13,94,84,74,-100,-100,-100,0,0,100,0.00,40.00,0,-999,0,0.00
2013-6-14,89,79,69,-100,-100,-100,0,0,100,0.00,40.00,0,-999,0,0.00
2013-6-15,89,79,67,-100,-100,-100,0,0,100,0.00,40.00,0,-999,0,0.00
2013-6-16,92,82,73,-100,-100,-100,0,0,100,0.00,40.00,0,-999,0,0.00
2013-6-17,80,75,71,-100,-100,-100,0,0,100,0.00,40.00,0,-999,0,0.00
2013-6-18,86,76,67,-100,-100,-100,0,0,100,0.00,40.00,0,-999,0,0.00
2013-6-19,95,80,69,-100,-100,-100,0,0,100,0.00,40.00,0,-999,0,0.00
2013-6-20,97,80,71,-100,-100,-100,0,0,100,0.00,40.00,0,-999,0,0.00
2013-6-22,92,87,79,-100,-100,-100,0,0,100,0.00,40.00,0,-999,0,0.00
2013-6-23,93,84,73,-100,-100,-100,0,0,100,0.00,40.00,0,-999,0,0.00
2013-6-24,98,85,75,-100,-100,-100,0,0,100,0.00,40.00,0,-999,0,0.00
2013-6-25,96,87,76,-100,-100,-100,0,0,100,0.00,40.00,0,-999,0,0.00
2013-6-26,95,88,76,-100,-100,-100,0,0,100,0.00,40.00,0,-999,0,0.00
2013-6-27,102,86,76,-100,-100,-100,0,0,100,0.00,40.00,0,-999,0,0.00
2013-6-28,92,81,72,-100,-100,-100,0,0,100,0.00,40.00,0,-999,0,0.00
2013-6-29,90,82,70,-100,-100,-100,0,0,100,0.00,40.00,0,-999,0,0.00
2013-6-30,80,74,66,-100,-100,-100,0,0,100,0.00,40.00,0,-999,0,0.00
2013-7-1,80,72,66,-100,-100,-100,0,0,100,0.00,40.00,0,-999,0,0.00
2013-7-2,86,74,62,-100,-100,-100,0,0,100,0.00,40.00,0,-999,0,0.00
2013-7-3,84,73,62,-100,-100,-100,0,0,100,0.00,40.00,0,-999,0,0.00
2013-7-4,89,76,64,-100,-100,-100,0,0,100,0.00,40.00,0,-999,0,0.00
2013-7-5,85,75,69,-100,-100,-100,0,0,100,0.00,40.00,0,-999,0,0.00
2013-7-6,87,74,67,-100,-100,-100,0,0,100,0.00,40.00,0,-999,0,0.00
2013-7-7,88,80,71,-100,-100,-100,0,0,100,0.00,40.00,0,-999,0,0.00
2013-7-8,97,83,73,-100,-100,-100,0,0,100,0.00,40.00,0,-999,0,0.00
2013-7-9,98,87,76,-100,-100,-100,0,0,100,0.00,40.00,0,-999,0,0.00
2013-7-10,100,88,73,-100,-100,-100,0,0,100,0.00,40.00,0,-999,0,0.00
2013-7-11,92,82,74,-100,-100,-100,0,0,100,0.00,40.00,0,-999,0,0.00
2013-7-12,88,76,66,-100,-100,-100,0,0,100,0.00,40.00,0,-999,0,0.00
2013-7-13,87,75,65,-100,-100,-100,0,0,100,0.00,40.00,0,-999,0,0.00
2013-7-14,91,77,67,-100,-100,-100,0,0,100,0.00,40.00,0,-999,0,0.00
2013-7-15,91,78,72,-100,-100,-100,0,0,100,0.00,40.00,0,-999,0,0.00
2013-7-16,91,81,73,-100,-100,-100,0,0,100,0.00,40.00,0,-999,0,0.00
2013-7-17,96,84,73,-100,-100,-100,0,0,100,0.00,40.00,0,-999,0,0.00
2013-7-18,94,81,70,-100,-100,-100,0,0,100,0.00,40.00,0,-999,0,0.00
2013-7-19,92,80,71,-100,-100,-100,0,0,100,0.00,40.00,0,-999,0,0.00
2013-7-20,94,80,71,-100,-100,-100,0,0,100,0.00,40.00,0,-999,0,0.00
2013-7-21,94,81,71,-100,-100,-100,0,0,100,0.00,40.00,0,-999,0,0.00
2013-7-22,90,80,74,-100,-100,-100,0,0,100,0.00,40.00,0,-999,0,0.00
2013-7-23,91,78,69,-100,-100,-100,0,0,100,0.00,40.00,0,-999,0,0.00
2013-7-24,86,79,73,-100,-100,-100,0,0,100,0.00,40.00,0,-999,0,0.00
2013-7-25,82,74,65,-100,-100,-100,0,0,100,0.00,40.00,0,-999,0,0.00
2013-7-26,84,72,64,-100,-100,-100,0,0,100,0.00,40.00,0,-999,0,0.00
2013-7-27,89,77,69,-100,-100,-100,0,0,100,0.00,40.00,0,-999,0,0.00
2013-7-28,81,73,65,-100,-100,-100,0,0,100,0.00,40.00,0,-999,0,0.00
2013-7-29,87,76,66,-100,-100,-100,0,0,100,0.00,40.00,0,-999,0,0.00
2013-7-30,85,77,73,-100,-100,-100,0,0,100,0.00,40.00,0,-999,0,0.00
2013-7-31,93,80,73,-100,-100,-100,0,0,100,0.00,40.00,0,-999,0,0.00
2013-8-1,86,78,72,-100,-100,-100,0,0,100,0.00,40.00,0,-999,0,0.00
2013-8-2,92,80,68,-100,-100,-100,0,0,100,0.00,40.00,0,-999,0,0.00
2013-8-3,83,77,73,-100,-100,-100,0,0,100,0.00,40.00,0,-999,0,0.00
2013-8-4,90,79,71,-100,-100,-100,0,0,100,0.00,40.00,0,-999,0,0.00
2013-8-5,81,76,71,-100,-100,-100,0,0,100,0.00,40.00,0,-999,0,0.00
2013-8-6,87,79,74,-100,-100,-100,0,0,100,0.00,40.00,0,-999,0,0.00
2013-8-7,92,82,76,-100,-100,-100,0,0,100,0.00,40.00,0,-999,0,0.00
2013-8-8,96,84,76,-100,-100,-100,0,0,100,0.00,40.00,0,-999,0,0.00
2013-8-9,96,82,73,-100,-100,-100,0,0,100,0.00,40.00,0,-999,0,0.00
2013-8-10,85,78,72,-100,-100,-100,0,0,100,0.00,40.00,0,-999,0,0.00
2013-8-11,86,78,73,-100,-100,-100,0,0,100,0.00,40.00,0,-999,0,0.00
2013-8-12,97,80,73,-100,-100,-100,0,0,100,0.00,40.00,0,-999,0,0.00
2013-8-13,85,78,73,-100,-100,-100,0,0,100,0.00,40.00,0,-999,0,0.00
2013-8-14,76,71,62,-100,-100,-100,0,0,100,0.00,40.00,0,-999,0,0.00
2013-8-15,80,67,58,-100,-100,-100,0,0,100,0.00,40.00,0,-999,0,0.00
2013-8-16,79,69,61,-100,-100,-100,0,0,100,0.00,40.00,0,-999,0,0.00
2013-8-17,80,72,66,-100,-100,-100,0,0,100,0.00,40.00,0,-999,0,0.00
2013-8-18,83,72,65,-100,-100,-100,0,0,100,0.00,40.00,0,-999,0,0.00
2013-8-19,87,75,65,-100,-100,-100,0,0,100,0.00,40.00,0,-999,0,0.00
2013-8-20,87,79,69,-100,-100,-100,0,0,100,0.00,40.00,0,-999,0,0.00
2013-8-21,95,82,69,-100,-100,-100,0,0,100,0.00,40.00,0,-999,0,0.00
2013-8-22,92,82,73,-100,-100,-100,0,0,100,0.00,40.00,0,-999,0,0.00
2013-8-23,93,82,71,-100,-100,-100,0,0,100,0.00,40.00,0,-999,0,0.00
2013-8-24,91,81,72,-100,-100,-100,0,0,100,0.00,40.00,0,-999,0,0.00
2013-8-25,87,79,72,-100,-100,-100,0,0,100,0.00,40.00,0,-999,0,0.00
2013-8-26,91,80,71,-100,-100,-100,0,0,100,0.00,40.00,0,-999,0,0.00
2013-8-27,96,76,68,-100,-100,-100,0,0,100,0.00,40.00,0,-999,0,0.00
2013-8-28,97,88,78,-100,-100,-100,0,0,100,0.00,40.00,0,-999,0,0.00
2013-8-29,96,82,70,-100,-100,-100,0,0,100,0.00,40.00,0,-999,0,0.00
2013-8-30,100,81,72,-100,-100,-100,0,0,100,0.00,40.00,0,-999,0,0.00
2013-8-31,102,86,73,-100,-100,-100,0,0,100,0.00,40.00,0,-999,0,0.00
2013-9-1,96,81,76,-100,-100,-100,0,0,100,0.00,40.00,0,-999,0,0.00
2013-9-2,92,81,73,-100,-100,-100,0,0,100,0.00,40.00,0,-999,0,0.00
2013-9-3,87,77,69,-100,-100,-100,0,0,100,0.00,40.00,0,-999,0,0.00
2013-9-4,85,74,62,-100,-100,-100,0,0,100,0.00,40.00,0,-999,0,0.00
2013-9-5,89,75,65,-100,-100,-100,0,0,100,0.00,40.00,0,-999,0,0.00
2013-9-6,91,76,65,-100,-100,-100,0,0,100,0.00,40.00,0,-999,0,0.00
2013-9-7,98,80,65,-100,-100,-100,0,0,100,0.00,40.00,0,-999,0,0.00
2013-9-8,100,82,69,-100,-100,-100,0,0,100,0.00,40.00,0,-999,0,0.00
2013-9-9,99,85,74,-100,-100,-100,0,0,100,0.00,40.00,0,-999,0,0.00
2013-9-10,94,85,78,-100,-100,-100,0,0,100,0.00,40.00,0,-999,0,0.00
2013-9-11,97,84,72,-100,-100,-100,0,0,100,0.00,40.00,0,-999,0,0.00
2013-9-12,95,78,72,-100,-100,-100,0,0,100,0.00,40.00,0,-999,0,0.00
2013-9-13,81,72,63,-100,-100,-100,0,0,100,0.00,40.00,0,-999,0,0.00
2013-9-14,76,64,55,-100,-100,-100,0,0,100,0.00,40.00,0,-999,0,0.00
2013-9-15,86,65,52,-100,-100,-100,0,0,100,0.00,40.00,0,-999,0,0.00
2013-9-16,86,68,59,-100,-100,-100,0,0,100,0.00,40.00,0,-999,0,0.00
2013-9-17,89,73,65,-100,-100,-100,0,0,100,0.00,40.00,0,-999,0,0.00
2013-9-18,71,69,68,-100,-100,-100,0,0,100,0.00,40.00,0,-999,0,0.00
2013-9-19,91,78,68,-100,-100,-100,0,0,100,0.00,40.00,0,-999,0,0.00
2013-9-20,76,73,69,-100,-100,-100,0,0,100,0.00,40.00,0,-999,0,0.00
2013-9-21,78,69,60,-100,-100,-100,0,0,100,0.00,40.00,0,-999,0,0.00
2013-9-22,79,66,54,-100,-100,-100,0,0,100,0.00,40.00,0,-999,0,0.00
2013-9-23,80,66,54,-100,-100,-100,0,0,100,0.00,40.00,0,-999,0,0.00
2013-9-24,79,69,62,-100,-100,-100,0,0,100,0.00,40.00,0,-999,0,0.00
2013-9-25,83,72,67,-100,-100,-100,0,0,100,0.00,40.00,0,-999,0,0.00
2013-9-26,84,72,65,-100,-100,-100,0,0,100,0.00,40.00,0,-999,0,0.00
2013-9-27,85,71,63,-100,-100,-100,0,0,100,0.00,40.00,0,-999,0,0.00
2013-9-28,83,73,62,-100,-100,-100,0,0,100,0.00,40.00,0,-999,0,0.00
2013-9-29,75,70,66,-100,-100,-100,0,0,100,0.00,40.00,0,-999,0,0.00
2013-9-30,74,69,66,-100,-100,-100,0,0,100,0.00,40.00,0,-999,0,0.00
2013-10-1,76,74,73,-100,-100,-100,0,0,100,0.00,40.00,0,-999,0,0.00
2013-10-2,84,73,69,-100,-100,-100,0,0,100,0.00,40.00,0,-999,0,0.00
2013-10-3,87,73,65,-100,-100,-100,0,0,100,0.00,40.00,0,-999,0,0.00
2013-10-4,83,76,69,-100,-100,-100,0,0,100,0.00,40.00,0,-999,0,0.00
2013-10-5,89,77,73,-100,-100,-100,0,0,100,0.00,40.00,0,-999,0,0.00
2013-10-6,70,61,54,-100,-100,-100,0,0,100,0.00,40.00,0,-999,0,0.00
2013-10-7,67,59,49,-100,-100,-100,0,0,100,0.00,40.00,0,-999,0,0.00
2013-10-8,71,57,49,-100,-100,-100,0,0,100,0.00,40.00,0,-999,0,0.00
2013-10-9,78,60,51,-100,-100,-100,0,0,100,0.00,40.00,0,-999,0,0.00
2013-10-10,76,65,58,-100,-100,-100,0,0,100,0.00,40.00,0,-999,0,0.00
2013-10-11,83,66,58,-100,-100,-100,0,0,100,0.00,40.00,0,-999,0,0.00
2013-10-12,74,66,61,-100,-100,-100,0,0,100,0.00,40.00,0,-999,0,0.00
2013-10-13,80,67,59,-100,-100,-100,0,0,100,0.00,40.00,0,-999,0,0.00
2013-10-14,80,70,54,-100,-100,-100,0,0,100,0.00,40.00,0,-999,0,0.00
2013-10-15,69,68,67,-100,-100,-100,0,0,100,0.00,40.00,0,-999,0,0.00
2013-10-16,68,60,55,-100,-100,-100,0,0,100,0.00,40.00,0,-999,0,0.00
2013-10-17,65,58,52,-100,-100,-100,0,0,100,0.00,40.00,0,-999,0,0.00
2013-10-18,71,59,49,-100,-100,-100,0,0,100,0.00,40.00,0,-999,0,0.00
2013-10-19,60,52,44,-100,-100,-100,0,0,100,0.00,40.00,0,-999,0,0.00
2013-10-20,66,52,41,-100,-100,-100,0,0,100,0.00,40.00,0,-999,0,0.00
2013-10-21,73,53,46,-100,-100,-100,0,0,100,0.00,40.00,0,-999,0,0.00
2013-10-22,66,55,47,-100,-100,-100,0,0,100,0.00,40.00,0,-999,0,0.00
2013-10-23,58,51,44,-100,-100,-100,0,0,100,0.00,40.00,0,-999,0,0.00
2013-10-24,59,48,43,-100,-100,-100,0,0,100,0.00,40.00,0,-999,0,0.00
2013-10-25,53,42,35,-100,-100,-100,0,0,100,0.00,40.00,0,-999,0,0.00
2013-10-26,67,53,37,-100,-100,-100,0,0,100,0.00,40.00,0,-999,0,0.00
2013-10-27,63,55,51,-100,-100,-100,0,0,100,0.00,40.00,0,-999,0,0.00
2013-10-28,71,56,50,-100,-100,-100,0,0,100,0.00,40.00,0,-999,0,0.00
2013-10-29,75,62,52,-100,-100,-100,0,0,100,0.00,40.00,0,-999,0,0.00
2013-10-30,73,68,62,-100,-100,-100,0,0,100,0.00,40.00,0,-999,0,0.00
2013-10-31,71,66,62,-100,-100,-100,0,0,100,0.00,40.00,0,-999,0,0.00
2013-11-1,72,60,51,-100,-100,-100,0,0,100,0.00,40.00,0,-999,0,0.00
2013-11-2,58,52,43,-100,-100,-100,0,0,100,0.00,40.00,0,-999,0,0.00
2013-11-3,58,45,38,-100,-100,-100,0,0,100,0.00,40.00,0,-999,0,0.00
2013-11-4,64,54,46,-100,-100,-100,0,0,100,0.00,40.00,0,-999,0,0.00
2013-11-5,69,58,53,-100,-100,-100,0,0,100,0.00,40.00,0,-999,0,0.00
2013-11-6,61,58,47,-100,-100,-100,0,0,100,0.00,40.00,0,-999,0,0.00
2013-11-7,54,44,39,-100,-100,-100,0,0,100,0.00,40.00,0,-999,0,0.00
2013-11-8,62,46,36,-100,-100,-100,0,0,100,0.00,40.00,0,-999,0,0.00
2013-11-9,62,50,42,-100,-100,-100,0,0,100,0.00,40.00,0,-999,0,0.00
2013-11-10,67,52,46,-100,-100,-100,0,0,100,0.00,40.00,0,-999,0,0.00
2013-11-11,69,51,39,-100,-100,-100,0,0,100,0.00,40.00,0,-999,0,0.00
2013-11-12,52,40,31,-100,-100,-100,0,0,100,0.00,40.00,0,-999,0,0.00
2013-11-13,45,34,24,-100,-100,-100,0,0,100,0.00,40.00,0,-999,0,0.00
2013-11-14,57,39,27,-100,-100,-100,0,0,100,0.00,40.00,0,-999,0,0.00
2013-11-15,60,50,42,-100,-100,-100,0,0,100,0.00,40.00,0,-999,0,0.00
2013-11-16,66,61,51,-100,-100,-100,0,0,100,0.00,40.00,0,-999,0,0.00
2013-11-17,77,70,62,-100,-100,-100,0,0,100,0.00,40.00,0,-999,0,0.00
2013-11-18,65,51,44,-100,-100,-100,0,0,100,0.00,40.00,0,-999,0,0.00
2013-11-19,51,43,34,-100,-100,-100,0,0,100,0.00,40.00,0,-999,0,0.00
2013-11-20,62,46,31,-100,-100,-100,0,0,100,0.00,40.00,0,-999,0,0.00
2013-11-21,64,57,50,-100,-100,-100,0,0,100,0.00,40.00,0,-999,0,0.00
2013-11-22,61,55,41,-100,-100,-100,0,0,100,0.00,40.00,0,-999,0,0.00
2013-11-23,41,38,32,-100,-100,-100,0,0,100,0.00,40.00,0,-999,0,0.00
2013-11-24,35,29,23,-100,-100,-100,0,0,100,0.00,40.00,0,-999,0,0.00
2013-11-25,34,32,31,-100,-100,-100,0,0,100,0.00,40.00,0,-999,0,0.00
2013-11-26,40,35,32,-100,-100,-100,0,0,100,0.00,40.00,0,-999,0,0.00
2013-11-27,34,28,24,-100,-100,-100,0,0,100,0.00,40.00,0,-999,0,0.00
2013-11-28,43,31,23,-100,-100,-100,0,0,100,0.00,40.00,0,-999,0,0.00
2013-11-29,55,39,29,-100,-100,-100,0,0,100,0.00,40.00,0,-999,0,0.00
2013-11-30,54,42,30,-100,-100,-100,0,0,100,0.00,40.00,0,-999,0,0.00
2013-12-1,62,51,41,-100,-100,-100,0,0,100,0.00,40.00,0,-999,0,0.00
2013-12-2,62,53,45,-100,-100,-100,0,0,100,0.00,40.00,0,-999,0,0.00
2013-12-3,58,53,46,-100,-100,-100,0,0,100,0.00,40.00,0,-999,0,0.00
2013-12-4,74,63,57,-100,-100,-100,0,0,100,0.00,40.00,0,-999,0,0.00
2013-12-5,64,41,32,-100,-100,-100,0,0,100,0.00,40.00,0,-999,0,0.00
2013-12-6,31,28,24,-100,-100,-100,0,0,100,0.00,40.00,0,-999,0,0.00
2013-12-7,25,22,19,-100,-100,-100,0,0,100,0.00,40.00,0,-999,0,0.00
2013-12-8,34,30,24,-100,-100,-100,0,0,100,0.00,40.00,0,-999,0,0.00
2013-12-9,32,31,29,-100,-100,-100,0,0,100,0.00,40.00,0,-999,0,0.00
2013-12-10,37,30,25,-100,-100,-100,0,0,100,0.00,40.00,0,-999,0,0.00
2013-12-11,43,34,26,-100,-100,-100,0,0,100,0.00,40.00,0,-999,0,0.00
2013-12-12,39,28,21,-100,-100,-100,0,0,100,0.00,40.00,0,-999,0,0.00
2013-12-13,46,35,26,-100,-100,-100,0,0,100,0.00,40.00,0,-999,0,0.00
2013-12-14,43,38,34,-100,-100,-100,0,0,100,0.00,40.00,0,-999,0,0.00
2013-12-15,41,36,32,-100,-100,-100,0,0,100,0.00,40.00,0,-999,0,0.00
2013-12-16,57,42,32,-100,-100,-100,0,0,100,0.00,40.00,0,-999,0,0.00
2013-12-17,57,45,36,-100,-100,-100,0,0,100,0.00,40.00,0,-999,0,0.00
2013-12-18,57,44,33,-100,-100,-100,0,0,100,0.00,40.00,0,-999,0,0.00
2013-12-19,58,50,43,-100,-100,-100,0,0,100,0.00,40.00,0,-999,0,0.00
2013-12-20,69,63,59,-100,-100,-100,0,0,100,0.00,40.00,0,-999,0,0.00
2013-12-21,66,60,47,-100,-100,-100,0,0,100,0.00,40.00,0,-999,0,0.00
2013-12-22,54,46,37,-100,-100,-100,0,0,100,0.00,40.00,0,-999,0,0.00
2013-12-23,36,33,30,-100,-100,-100,0,0,100,0.00,40.00,0,-999,0,0.00
2013-12-24,32,28,23,-100,-100,-100,0,0,100,0.00,40.00,0,-999,0,0.00
2013-12-25,47,36,25,-100,-100,-100,0,0,100,0.00,40.00,0,-999,0,0.00
2013-12-26,46,38,30,-100,-100,-100,0,0,100,0.00,40.00,0,-999,0,0.00
2013-12-27,54,40,29,-100,-100,-100,0,0,100,0.00,40.00,0,-999,0,0.00
2013-12-28,46,40,33,-100,-100,-100,0,0,100,0.00,40.00,0,-999,0,0.00
2013-12-29,55,41,33,-100,-100,-100,0,0,100,0.00,40.00,0,-999,0,0.00
2013-12-30,33,29,27,-100,-100,-100,0,0,100,0.00,40.00,0,-999,0,0.00
2013-12-31,43,30,25,-100,-100,-100,0,0,100,0.00,40.00,0,-999,0,0.00
2014-1-1,50,37,29,-100,-100,-100,0,0,100,0.00,40.00,0,-999,0,0.00
2014-1-2,47,32,23,-100,-100,-100,0,0,100,0.00,40.00,0,-999,0,0.00